Portada
METAR-TAF:

METAR-TAF

Aeroports :

Sokoto, Nigèria

latitud: 13-01N, longitud: 005-15E, altitud: 351 m

METAR: manca

Hora: 16:50 (15:50 UTC)

Pronòstic

L'informe es va fer fa 28 hores i 50 minuts, a les 11:00 UTC
Pronòstic vàlid del 22 a les 12 UTC al 23 a les 18 UTC
Vent 10 kt del Oest
Visibilitat 10 km o més
Núvols disperses a una alçada de 1300 ft
Temporalment
l' 22 a les 16 UTC al 22 a les 22 UTC
Vent 10 kt del Est/Nord-Est amb ràfegues de 30 kt
Visibilitat: 5000 m
Cel ennuvolat a una alçada de 1400 ft
Escasses núvols a una alçada de 2100 ft, Cumulonimbus.
tempesta, pluja

TAF: DNSO 221100Z 2212/2318 26010KT 9999 SCT013 TEMPO 2216/2222 07010G30KT 5000 TSRA BKN014 FEW021CB

Observacions i pronòstics meteorològics de més de 4000 aeroports (METAR i TAF).

Les estacions disponibles són els punts grocs i vermells al mapa.

Posi el ratolí al punt desitjat per veure el nom de l'estació.

Feu clic per veure les observacions i els pronòstics meteorològics.

Per canviar el mapa: feu clic els botons verds amb una creu de color negre per apropar; al botó verd amb un guió per allunyar la imatge; o en les fletxes verdes per a mapes adjacents.


METAR-TAF: